createdAt,value
2019-03-03T00:01:01.976Z,2.60
2019-03-03T00:03:29.497Z,2.70
2019-03-03T00:05:56.643Z,2.70
2019-03-03T00:08:24.662Z,2.70
2019-03-03T00:10:52.074Z,2.60
2019-03-03T00:13:19.422Z,2.60
2019-03-03T00:15:46.663Z,2.60
2019-03-03T00:18:13.866Z,2.60
2019-03-03T00:20:41.166Z,2.60
2019-03-03T00:23:08.455Z,2.60
2019-03-03T00:25:35.776Z,2.70
2019-03-03T00:28:02.927Z,2.60
2019-03-03T00:30:30.172Z,2.60
2019-03-03T00:32:57.341Z,2.60
2019-03-03T00:35:24.584Z,2.50
2019-03-03T00:38:08.568Z,2.50
2019-03-03T00:40:43.418Z,2.50
2019-03-03T00:43:18.404Z,2.50
2019-03-03T00:45:50.576Z,2.50
2019-03-03T00:48:19.671Z,2.50
2019-03-03T00:50:48.617Z,2.40
2019-03-03T00:53:17.556Z,2.40
2019-03-03T00:55:55.365Z,2.50
2019-03-03T00:58:27.223Z,2.50
2019-03-03T01:00:59.157Z,2.40
2019-03-03T01:03:42.806Z,2.30
2019-03-03T01:06:14.627Z,2.20
2019-03-03T01:08:58.410Z,2.20
2019-03-03T01:11:39.340Z,2.20
2019-03-03T01:14:08.278Z,2.20
2019-03-03T01:16:39.766Z,2.30
2019-03-03T01:19:23.484Z,2.30
2019-03-03T01:22:04.480Z,2.30
2019-03-03T01:24:36.292Z,2.20
2019-03-03T01:27:03.560Z,2.20
2019-03-03T01:29:30.834Z,2.20
2019-03-03T01:31:57.966Z,2.20
2019-03-03T01:34:25.163Z,2.20
2019-03-03T01:36:52.421Z,2.20
2019-03-03T01:39:19.673Z,2.20
2019-03-03T01:41:46.952Z,2.20
2019-03-03T01:44:14.195Z,2.20
2019-03-03T01:46:41.476Z,2.20
2019-03-03T01:49:08.711Z,2.20
2019-03-03T01:51:36.020Z,2.20
2019-03-03T01:54:03.369Z,2.20
2019-03-03T01:56:30.604Z,2.20
2019-03-03T01:58:57.800Z,2.20
2019-03-03T02:01:25.039Z,2.30
2019-03-03T02:03:52.183Z,2.20
2019-03-03T02:06:19.566Z,2.30
2019-03-03T02:08:46.809Z,2.30
2019-03-03T02:11:14.139Z,2.30
2019-03-03T02:13:41.381Z,2.30
2019-03-03T02:16:09.318Z,2.30
2019-03-03T02:18:36.581Z,2.30
2019-03-03T02:21:04.076Z,2.20
2019-03-03T02:23:31.318Z,2.20
2019-03-03T02:25:58.568Z,2.20
2019-03-03T02:28:25.832Z,2.30
2019-03-03T02:30:52.977Z,2.30
2019-03-03T02:33:20.249Z,2.20
2019-03-03T02:35:47.401Z,2.30
2019-03-03T02:38:14.650Z,2.30
2019-03-03T02:40:41.921Z,2.40
2019-03-03T02:43:09.051Z,2.40
2019-03-03T02:45:36.194Z,2.30
2019-03-03T02:48:03.453Z,2.30
2019-03-03T02:50:30.694Z,2.40
2019-03-03T02:52:57.857Z,2.40
2019-03-03T02:55:25.152Z,2.30
2019-03-03T02:57:52.376Z,2.30
2019-03-03T03:00:22.146Z,2.30
2019-03-03T03:02:50.657Z,2.40
2019-03-03T03:05:32.876Z,2.40
2019-03-03T03:08:04.773Z,2.40
2019-03-03T03:10:39.716Z,2.30
2019-03-03T03:13:11.613Z,2.20
2019-03-03T03:15:43.425Z,2.20
2019-03-03T03:18:18.209Z,2.20
2019-03-03T03:20:56.129Z,2.10
2019-03-03T03:23:25.240Z,2.10
2019-03-03T03:25:59.793Z,2.00
2019-03-03T03:28:34.447Z,2.10
2019-03-03T03:31:03.411Z,2.00
2019-03-03T03:33:32.433Z,2.00
2019-03-03T03:36:03.905Z,2.10
2019-03-03T03:38:32.847Z,2.00
2019-03-03T03:41:02.021Z,2.00
2019-03-03T03:43:39.749Z,1.90
2019-03-03T03:46:11.260Z,1.90
2019-03-03T03:48:40.201Z,1.90
2019-03-03T03:51:11.697Z,1.90
2019-03-03T03:53:49.145Z,1.80
2019-03-03T03:56:32.992Z,1.80
2019-03-03T03:59:11.193Z,1.80
2019-03-03T04:01:43.144Z,1.80
2019-03-03T04:04:12.193Z,1.70
2019-03-03T04:06:41.231Z,1.60
2019-03-03T04:09:16.451Z,1.60
2019-03-03T04:12:00.585Z,1.70
2019-03-03T04:14:32.464Z,1.70
2019-03-03T04:17:01.466Z,1.80
2019-03-03T04:19:33.592Z,1.80
2019-03-03T04:22:02.680Z,1.80
2019-03-03T04:24:49.382Z,1.80
2019-03-03T04:27:24.171Z,1.80
2019-03-03T04:29:58.765Z,1.80
2019-03-03T04:32:27.809Z,1.70
2019-03-03T04:35:09.082Z,1.80
2019-03-03T04:37:40.901Z,1.70
2019-03-03T04:40:15.900Z,1.70
2019-03-03T04:42:47.715Z,1.70
2019-03-03T04:45:22.328Z,1.80
2019-03-03T04:48:08.901Z,1.80
2019-03-03T04:50:52.913Z,1.80
2019-03-03T04:53:39.793Z,1.80
2019-03-03T04:56:14.663Z,0.40
2019-03-03T04:59:00.061Z,1.70
2019-03-03T05:01:31.937Z,1.70
2019-03-03T05:04:10.066Z,1.70
2019-03-03T05:06:56.904Z,1.80
2019-03-03T05:09:28.605Z,1.80
2019-03-03T05:12:26.894Z,1.80
2019-03-03T05:14:56.147Z,1.90
2019-03-03T05:17:30.779Z,1.90
2019-03-03T05:19:59.738Z,1.90
2019-03-03T05:22:26.879Z,1.90
2019-03-03T05:24:54.080Z,2.00
2019-03-03T05:27:21.249Z,2.10
2019-03-03T05:29:48.468Z,2.10
2019-03-03T05:32:15.729Z,2.20
2019-03-03T05:34:42.887Z,2.20
2019-03-03T05:37:10.025Z,2.30
2019-03-03T05:39:37.313Z,2.30
2019-03-03T05:42:04.456Z,2.40
2019-03-03T05:44:31.595Z,2.40
2019-03-03T05:46:58.869Z,2.40
2019-03-03T05:49:26.197Z,2.50
2019-03-03T05:51:53.590Z,2.50
2019-03-03T05:54:20.972Z,2.50
2019-03-03T05:56:48.256Z,2.50
2019-03-03T05:59:15.504Z,2.60
2019-03-03T06:01:42.823Z,2.60
2019-03-03T06:04:10.169Z,2.70
2019-03-03T06:06:37.433Z,2.70
2019-03-03T06:09:05.707Z,2.70
2019-03-03T06:11:32.753Z,2.70
2019-03-03T06:13:59.895Z,2.60
2019-03-03T06:16:27.091Z,2.60
2019-03-03T06:18:54.236Z,2.60
2019-03-03T06:21:21.380Z,2.70
2019-03-03T06:23:48.598Z,2.70
2019-03-03T06:26:15.837Z,2.70
2019-03-03T06:28:42.971Z,2.80
2019-03-03T06:31:10.235Z,2.80
2019-03-03T06:33:37.381Z,2.80
2019-03-03T06:36:04.585Z,2.80
2019-03-03T06:38:31.835Z,2.80
2019-03-03T06:40:58.986Z,2.90
2019-03-03T06:43:26.143Z,3.00
2019-03-03T06:45:53.421Z,2.90
2019-03-03T06:48:20.560Z,3.00
2019-03-03T06:50:47.765Z,3.00
2019-03-03T06:53:14.941Z,3.10
2019-03-03T06:55:42.091Z,3.10
2019-03-03T06:58:09.351Z,3.10
2019-03-03T07:00:36.616Z,3.10
2019-03-03T07:03:03.779Z,3.20
2019-03-03T07:05:31.020Z,3.20
2019-03-03T07:07:58.228Z,3.20
2019-03-03T07:10:25.396Z,3.30
2019-03-03T07:12:52.636Z,3.40
2019-03-03T07:15:19.807Z,3.40
2019-03-03T07:17:46.997Z,3.40
2019-03-03T07:20:14.205Z,3.50
2019-03-03T07:22:42.189Z,3.50
2019-03-03T07:25:13.213Z,3.60
2019-03-03T07:27:40.351Z,3.60
2019-03-03T07:30:13.257Z,3.50
2019-03-03T07:32:47.699Z,3.60
2019-03-03T07:35:15.007Z,3.60
2019-03-03T07:37:43.058Z,3.50
2019-03-03T07:40:10.285Z,3.60
2019-03-03T07:42:37.611Z,3.60
2019-03-03T07:45:11.039Z,3.70
2019-03-03T07:47:38.277Z,3.60
2019-03-03T07:50:05.899Z,3.60
2019-03-03T07:52:33.095Z,3.70
2019-03-03T07:55:00.357Z,3.70
2019-03-03T07:57:27.669Z,3.80
2019-03-03T07:59:54.833Z,3.70
2019-03-03T08:02:21.977Z,3.80
2019-03-03T08:04:50.054Z,3.80
2019-03-03T08:07:17.431Z,3.70
2019-03-03T08:09:44.684Z,3.70
2019-03-03T08:12:12.002Z,3.70
2019-03-03T08:14:39.244Z,3.70
2019-03-03T08:17:06.385Z,3.80
2019-03-03T08:19:33.646Z,3.80
2019-03-03T08:22:00.901Z,4.00
2019-03-03T08:24:28.182Z,4.10
2019-03-03T08:26:55.465Z,4.20
2019-03-03T08:29:22.634Z,4.20
2019-03-03T08:31:49.934Z,4.40
2019-03-03T08:34:18.024Z,4.50
2019-03-03T08:36:45.339Z,4.60
2019-03-03T08:39:12.666Z,4.70
2019-03-03T08:41:41.630Z,4.80
2019-03-03T08:44:13.491Z,4.90
2019-03-03T08:46:48.572Z,5.10
2019-03-03T08:49:20.310Z,5.10
2019-03-03T08:51:49.425Z,5.00
2019-03-03T08:54:18.574Z,4.80
2019-03-03T08:56:47.644Z,4.90
2019-03-03T08:59:25.652Z,5.00
2019-03-03T09:01:57.564Z,5.10
2019-03-03T09:04:35.323Z,5.30
2019-03-03T09:07:16.523Z,5.30
2019-03-03T09:09:48.264Z,5.40
2019-03-03T09:12:29.314Z,5.40
2019-03-03T09:15:14.872Z,5.40
2019-03-03T09:17:52.983Z,5.40
2019-03-03T09:20:22.080Z,5.50
2019-03-03T09:23:05.741Z,5.50
2019-03-03T09:25:51.244Z,5.70
2019-03-03T09:28:35.329Z,5.80
2019-03-03T09:31:04.288Z,5.80
2019-03-03T09:33:33.440Z,5.90
2019-03-03T09:36:05.310Z,6.00
2019-03-03T09:38:34.452Z,5.90
2019-03-03T09:41:03.551Z,6.00
2019-03-03T09:43:48.819Z,5.90
2019-03-03T09:46:23.816Z,5.80
2019-03-03T09:49:09.276Z,5.80
2019-03-03T09:51:41.311Z,5.70
2019-03-03T09:54:10.249Z,5.60
2019-03-03T09:56:39.183Z,5.60
2019-03-03T09:59:08.509Z,5.70
2019-03-03T10:01:40.093Z,5.70
2019-03-03T10:04:20.842Z,5.70
2019-03-03T10:07:05.873Z,5.90
2019-03-03T10:09:46.772Z,6.10
2019-03-03T10:12:18.599Z,6.20
2019-03-03T10:15:04.208Z,6.40
2019-03-03T10:17:33.161Z,6.40
2019-03-03T10:20:02.112Z,6.40
2019-03-03T10:22:31.228Z,6.40
2019-03-03T10:25:00.315Z,6.50
2019-03-03T10:27:38.197Z,6.60
2019-03-03T10:30:15.808Z,6.70
2019-03-03T10:33:02.450Z,6.80
2019-03-03T10:35:31.401Z,6.70
2019-03-03T10:38:06.208Z,6.60
2019-03-03T10:40:35.158Z,6.60
2019-03-03T10:43:06.984Z,6.50
2019-03-03T10:45:41.560Z,6.50
2019-03-03T10:48:19.113Z,6.30
2019-03-03T10:50:53.712Z,6.40
2019-03-03T10:53:22.711Z,6.30
2019-03-03T10:56:06.684Z,6.30
2019-03-03T10:58:52.119Z,6.40
2019-03-03T11:01:27.083Z,6.40
2019-03-03T11:03:58.897Z,6.40
2019-03-03T11:06:27.900Z,6.40
2019-03-03T11:08:59.682Z,6.50
2019-03-03T11:11:34.203Z,6.60
2019-03-03T11:14:23.454Z,6.60
2019-03-03T11:16:56.690Z,6.70
2019-03-03T11:19:31.874Z,6.90
2019-03-03T11:22:15.612Z,6.90
2019-03-03T11:25:01.171Z,6.80
2019-03-03T11:27:36.101Z,6.90
2019-03-03T11:30:20.525Z,6.80
2019-03-03T11:32:49.605Z,6.70
2019-03-03T11:35:18.563Z,6.80
2019-03-03T11:37:50.066Z,6.80
2019-03-03T11:40:19.096Z,6.90
2019-03-03T11:42:57.317Z,6.80
2019-03-03T11:45:32.252Z,6.80
2019-03-03T11:48:04.703Z,6.80
2019-03-03T11:50:42.485Z,6.80
2019-03-03T11:53:27.905Z,6.90
2019-03-03T11:56:05.740Z,7.00
2019-03-03T11:58:43.485Z,7.10
2019-03-03T12:01:21.392Z,7.30
2019-03-03T12:04:02.591Z,7.30
2019-03-03T12:06:34.635Z,7.30
2019-03-03T12:09:12.342Z,7.40
2019-03-03T12:11:53.608Z,7.30
2019-03-03T12:14:28.438Z,7.40
2019-03-03T12:17:09.212Z,7.50
2019-03-03T12:19:40.829Z,7.60
2019-03-03T12:22:09.896Z,7.70
2019-03-03T12:24:47.772Z,7.70
2019-03-03T12:27:22.460Z,7.70
2019-03-03T12:29:56.992Z,7.70
2019-03-03T12:32:25.932Z,7.60
2019-03-03T12:34:57.455Z,7.70
2019-03-03T12:37:32.181Z,7.80
2019-03-03T12:40:12.962Z,7.70
2019-03-03T12:42:42.129Z,7.80
2019-03-03T12:45:13.941Z,7.80
2019-03-03T12:47:59.595Z,7.80
2019-03-03T12:50:44.999Z,7.90
2019-03-03T12:53:19.847Z,8.00
2019-03-03T12:56:03.687Z,8.10
2019-03-03T12:58:49.148Z,8.10
2019-03-03T13:01:26.937Z,8.10
2019-03-03T13:04:12.451Z,8.20
2019-03-03T13:06:50.386Z,8.30
2019-03-03T13:09:19.384Z,8.40
2019-03-03T13:11:51.063Z,8.60
2019-03-03T13:14:23.773Z,8.60
2019-03-03T13:17:02.172Z,8.60
2019-03-03T13:19:31.115Z,8.50
2019-03-03T13:22:02.633Z,8.40
2019-03-03T13:24:49.383Z,8.50
2019-03-03T13:27:24.199Z,8.60
2019-03-03T13:29:53.277Z,8.60
2019-03-03T13:32:25.135Z,8.70
2019-03-03T13:34:59.949Z,8.70
2019-03-03T13:37:31.759Z,8.80
2019-03-03T13:40:12.637Z,8.90
2019-03-03T13:42:57.569Z,9.00
2019-03-03T13:45:26.311Z,8.90
2019-03-03T13:47:53.567Z,8.80
2019-03-03T13:50:20.893Z,8.70
2019-03-03T13:52:48.470Z,8.60
2019-03-03T13:55:15.713Z,8.60
2019-03-03T13:57:43.004Z,8.50
2019-03-03T14:00:14.601Z,8.50
2019-03-03T14:02:41.952Z,8.50
2019-03-03T14:05:09.210Z,8.50
2019-03-03T14:07:37.653Z,8.30
2019-03-03T14:10:08.151Z,8.40
2019-03-03T14:12:35.524Z,8.30
2019-03-03T14:15:08.293Z,8.40
2019-03-03T14:17:35.557Z,8.40
2019-03-03T14:20:04.933Z,8.40
2019-03-03T14:22:32.173Z,8.40
2019-03-03T14:24:59.464Z,8.40
2019-03-03T14:27:26.706Z,8.40
2019-03-03T14:29:53.907Z,8.50
2019-03-03T14:32:21.139Z,8.50
2019-03-03T14:34:48.294Z,8.60
2019-03-03T14:37:15.464Z,8.60
2019-03-03T14:39:42.637Z,8.60
2019-03-03T14:42:09.912Z,8.70
2019-03-03T14:44:37.111Z,8.70
2019-03-03T14:47:04.363Z,8.70
2019-03-03T14:49:31.600Z,8.70
2019-03-03T14:51:58.812Z,8.60
2019-03-03T14:54:26.048Z,8.70
2019-03-03T14:56:53.351Z,8.60
2019-03-03T14:59:20.606Z,8.70
2019-03-03T15:01:47.846Z,8.80
2019-03-03T15:04:15.236Z,8.80
2019-03-03T15:06:42.512Z,8.70
2019-03-03T15:09:20.056Z,8.70
2019-03-03T15:11:47.258Z,8.70
2019-03-03T15:14:14.523Z,8.70
2019-03-03T15:16:41.844Z,8.70
2019-03-03T15:19:09.179Z,8.70
2019-03-03T15:21:36.324Z,8.60
2019-03-03T15:24:03.702Z,8.60
2019-03-03T15:26:31.149Z,8.60
2019-03-03T15:28:58.527Z,8.60
2019-03-03T15:31:25.731Z,8.50
2019-03-03T15:33:52.867Z,8.50
2019-03-03T15:36:20.172Z,8.60
2019-03-03T15:38:47.473Z,8.50
2019-03-03T15:41:14.726Z,8.50
2019-03-03T15:43:41.999Z,8.50
2019-03-03T15:46:09.474Z,8.50
2019-03-03T15:48:36.776Z,8.50
2019-03-03T15:51:04.041Z,8.50
2019-03-03T15:53:32.528Z,8.50
2019-03-03T15:55:59.783Z,8.50
2019-03-03T15:58:26.940Z,8.50
2019-03-03T16:00:54.337Z,8.50
2019-03-03T16:03:21.475Z,8.60
2019-03-03T16:05:48.621Z,8.70
2019-03-03T16:08:15.900Z,8.70
2019-03-03T16:10:43.187Z,8.70
2019-03-03T16:13:10.964Z,8.60
2019-03-03T16:15:38.112Z,8.70
2019-03-03T16:18:05.456Z,8.70
2019-03-03T16:20:32.751Z,8.70
2019-03-03T16:22:59.955Z,8.80
2019-03-03T16:25:27.387Z,8.70
2019-03-03T16:27:54.724Z,8.80
2019-03-03T16:30:22.775Z,8.70
2019-03-03T16:32:50.196Z,8.70
2019-03-03T16:35:17.358Z,8.80
2019-03-03T16:37:45.007Z,8.70
2019-03-03T16:40:17.247Z,8.80
2019-03-03T16:42:44.506Z,8.80
2019-03-03T16:45:14.456Z,8.70
2019-03-03T16:47:41.769Z,8.80
2019-03-03T16:50:13.881Z,8.70
2019-03-03T16:52:41.516Z,8.70
2019-03-03T16:55:11.076Z,8.70
2019-03-03T16:57:38.406Z,8.80
2019-03-03T17:00:17.484Z,8.70
2019-03-03T17:02:44.794Z,8.70
2019-03-03T17:05:14.837Z,8.80
2019-03-03T17:07:42.088Z,8.80
2019-03-03T17:10:10.382Z,8.80
2019-03-03T17:12:37.917Z,8.90
2019-03-03T17:15:14.363Z,8.90
2019-03-03T17:17:41.633Z,8.90
2019-03-03T17:20:08.992Z,8.80
2019-03-03T17:22:38.857Z,8.90
2019-03-03T17:25:09.381Z,8.90
2019-03-03T17:27:37.357Z,8.90
2019-03-03T17:30:13.613Z,8.90
2019-03-03T17:32:40.932Z,8.90
2019-03-03T17:35:08.212Z,8.90
2019-03-03T17:37:35.573Z,9.00
2019-03-03T17:40:06.191Z,8.90
2019-03-03T17:42:33.443Z,9.00
2019-03-03T17:45:00.711Z,9.00
2019-03-03T17:47:28.158Z,9.10
2019-03-03T17:49:55.439Z,9.00
2019-03-03T17:52:22.592Z,9.10
2019-03-03T17:54:49.820Z,9.00
2019-03-03T17:57:17.017Z,9.00
2019-03-03T17:59:44.259Z,9.00
2019-03-03T18:02:11.463Z,8.90
2019-03-03T18:04:39.977Z,8.90
2019-03-03T18:07:07.239Z,8.90
2019-03-03T18:09:34.400Z,8.90
2019-03-03T18:12:01.684Z,8.90
2019-03-03T18:14:29.201Z,8.90
2019-03-03T18:16:56.445Z,9.00
2019-03-03T18:19:23.736Z,8.90
2019-03-03T18:21:52.924Z,8.90
2019-03-03T18:24:22.092Z,8.80
2019-03-03T18:26:49.493Z,8.80
2019-03-03T18:29:16.666Z,8.80
2019-03-03T18:31:43.879Z,8.80
2019-03-03T18:34:11.246Z,8.90
2019-03-03T18:36:38.840Z,8.80
2019-03-03T18:39:06.598Z,8.80
2019-03-03T18:41:33.889Z,8.80
2019-03-03T18:44:01.028Z,8.80
2019-03-03T18:46:28.185Z,8.80
2019-03-03T18:48:55.419Z,8.80
2019-03-03T18:51:22.577Z,8.80
2019-03-03T18:53:49.814Z,8.80
2019-03-03T18:56:17.144Z,8.90
2019-03-03T18:58:44.257Z,8.80
2019-03-03T19:01:11.576Z,8.70
2019-03-03T19:03:38.902Z,8.80
2019-03-03T19:06:06.096Z,8.80
2019-03-03T19:08:33.286Z,8.80
2019-03-03T19:11:00.477Z,8.80
2019-03-03T19:13:27.765Z,8.80
2019-03-03T19:15:55.039Z,8.80
2019-03-03T19:18:22.389Z,8.80
2019-03-03T19:20:51.968Z,8.80
2019-03-03T19:23:19.258Z,8.80
2019-03-03T19:25:46.620Z,8.80
2019-03-03T19:28:13.996Z,8.80
2019-03-03T19:30:41.417Z,8.80
2019-03-03T19:33:12.300Z,8.80
2019-03-03T19:35:39.617Z,8.80
2019-03-03T19:38:06.888Z,8.80
2019-03-03T19:40:34.158Z,8.80
2019-03-03T19:43:01.524Z,8.80
2019-03-03T19:45:36.993Z,8.70
2019-03-03T19:48:05.356Z,8.70
2019-03-03T19:50:32.632Z,8.60
2019-03-03T19:52:59.787Z,8.50
2019-03-03T19:55:26.978Z,8.40
2019-03-03T19:57:54.322Z,8.40
2019-03-03T20:00:35.595Z,8.40
2019-03-03T20:02:59.452Z,8.30
2019-03-03T20:05:26.779Z,8.40
2019-03-03T20:07:54.252Z,8.30
2019-03-03T20:10:21.597Z,8.30
2019-03-03T20:12:48.968Z,8.40
2019-03-03T20:15:16.296Z,8.40
2019-03-03T20:17:45.092Z,8.30
2019-03-03T20:20:17.120Z,8.40
2019-03-03T20:22:44.349Z,8.40
2019-03-03T20:25:12.263Z,8.40
2019-03-03T20:27:39.597Z,8.40
2019-03-03T20:30:10.121Z,8.30
2019-03-03T20:32:37.395Z,8.30
2019-03-03T20:35:07.235Z,8.20
2019-03-03T20:37:34.401Z,8.20
2019-03-03T20:40:01.741Z,8.30
2019-03-03T20:42:28.901Z,8.30
2019-03-03T20:44:56.257Z,8.30
2019-03-03T20:47:23.483Z,8.30
2019-03-03T20:49:50.840Z,8.30
2019-03-03T20:52:18.145Z,8.20
2019-03-03T20:54:45.414Z,8.20
2019-03-03T20:57:12.758Z,8.30
2019-03-03T20:59:40.073Z,8.20
2019-03-03T21:02:07.651Z,8.20
2019-03-03T21:04:34.965Z,8.20
2019-03-03T21:07:02.169Z,8.20
2019-03-03T21:09:29.397Z,8.20
2019-03-03T21:11:56.537Z,8.20
2019-03-03T21:14:23.838Z,8.20
2019-03-03T21:16:51.093Z,8.10
2019-03-03T21:19:18.409Z,8.10
2019-03-03T21:21:45.723Z,8.10
2019-03-03T21:24:13.165Z,8.10
2019-03-03T21:26:40.437Z,8.10
2019-03-03T21:29:07.725Z,8.10
2019-03-03T21:31:35.000Z,8.00
2019-03-03T21:34:02.243Z,8.00
2019-03-03T21:36:29.409Z,8.00
2019-03-03T21:38:56.649Z,8.00
2019-03-03T21:41:24.101Z,8.00
2019-03-03T21:43:51.384Z,7.90
2019-03-03T21:46:18.560Z,7.90
2019-03-03T21:48:45.808Z,7.90
2019-03-03T21:51:12.963Z,7.90
2019-03-03T21:53:40.249Z,7.80
2019-03-03T21:56:07.455Z,7.90
2019-03-03T21:58:34.609Z,7.90
2019-03-03T22:01:01.852Z,7.90
2019-03-03T22:03:29.191Z,7.90
2019-03-03T22:05:56.335Z,7.90
2019-03-03T22:08:23.580Z,7.90
2019-03-03T22:10:50.790Z,7.80
2019-03-03T22:13:17.943Z,7.80
2019-03-03T22:15:45.092Z,7.90
2019-03-03T22:18:12.395Z,7.80
2019-03-03T22:20:39.685Z,7.80
2019-03-03T22:23:06.863Z,7.80
2019-03-03T22:25:34.116Z,7.90
2019-03-03T22:28:01.316Z,7.80
2019-03-03T22:30:28.586Z,7.80
2019-03-03T22:32:55.746Z,7.90
2019-03-03T22:35:23.361Z,7.90
2019-03-03T22:37:50.628Z,7.80
2019-03-03T22:40:19.509Z,7.80
2019-03-03T22:42:47.830Z,7.80
2019-03-03T22:45:15.863Z,7.80
2019-03-03T22:47:43.208Z,7.80
2019-03-03T22:50:14.463Z,7.70
2019-03-03T22:52:41.928Z,7.70
2019-03-03T22:55:11.990Z,7.70
2019-03-03T22:57:39.189Z,7.70
2019-03-03T23:00:09.945Z,7.70
2019-03-03T23:02:37.188Z,7.70
2019-03-03T23:05:14.116Z,7.80
2019-03-03T23:07:47.693Z,7.70
2019-03-03T23:10:39.898Z,7.70
2019-03-03T23:13:28.559Z,7.70
2019-03-03T23:16:02.132Z,7.70
2019-03-03T23:18:38.940Z,7.60
2019-03-03T23:21:34.071Z,7.60
2019-03-03T23:24:21.722Z,7.60
2019-03-03T23:26:49.517Z,7.60
2019-03-03T23:29:16.778Z,7.60
2019-03-03T23:31:44.048Z,7.60
2019-03-03T23:34:12.110Z,7.60
2019-03-03T23:36:39.450Z,7.60
2019-03-03T23:39:06.860Z,7.60
2019-03-03T23:41:34.103Z,7.50
2019-03-03T23:44:01.256Z,7.60
2019-03-03T23:46:28.521Z,7.50
2019-03-03T23:48:55.771Z,7.50
2019-03-03T23:51:22.943Z,7.50
2019-03-03T23:53:50.197Z,7.50
2019-03-03T23:56:17.404Z,7.40
2019-03-03T23:58:44.544Z,7.40
